createdAt,value
2022-08-07T00:00:23.519Z,22.78
2022-08-07T00:02:36.883Z,22.82
2022-08-07T00:03:52.844Z,22.81
2022-08-07T00:05:29.353Z,22.81
2022-08-07T00:07:05.224Z,22.80
2022-08-07T00:08:44.436Z,22.79
2022-08-07T00:10:25.912Z,22.76
2022-08-07T00:12:00.704Z,22.76
2022-08-07T00:13:34.109Z,22.65
2022-08-07T00:15:13.884Z,22.73
2022-08-07T00:16:48.320Z,22.59
2022-08-07T00:18:24.472Z,22.64
2022-08-07T00:20:03.198Z,22.59
2022-08-07T00:21:55.970Z,22.53
2022-08-07T00:23:31.377Z,22.46
2022-08-07T00:25:07.355Z,22.35
2022-08-07T00:27:06.275Z,22.26
2022-08-07T00:28:41.815Z,22.15
2022-08-07T00:30:26.381Z,22.09
2022-08-07T00:32:01.959Z,22.01
2022-08-07T00:33:36.126Z,21.96
2022-08-07T00:35:11.026Z,21.92
2022-08-07T00:36:50.195Z,21.89
2022-08-07T00:38:31.093Z,21.88
2022-08-07T00:40:06.317Z,21.84
2022-08-07T00:41:53.847Z,21.79
2022-08-07T00:44:01.889Z,21.75
2022-08-07T00:45:29.280Z,21.69
2022-08-07T00:47:06.549Z,21.61
2022-08-07T00:48:51.727Z,21.58
2022-08-07T00:50:46.096Z,21.52
2022-08-07T00:52:20.229Z,21.55
2022-08-07T00:53:55.213Z,21.55
2022-08-07T00:56:00.829Z,21.51
2022-08-07T00:57:25.778Z,21.52
2022-08-07T00:59:00.220Z,21.48
2022-08-07T01:00:33.637Z,21.45
2022-08-07T01:02:13.947Z,21.43
2022-08-07T01:03:56.693Z,21.42
2022-08-07T01:05:36.539Z,21.38
2022-08-07T01:07:11.854Z,21.38
2022-08-07T01:08:52.948Z,21.38
2022-08-07T01:10:27.750Z,21.36
2022-08-07T01:12:23.837Z,21.22
2022-08-07T01:13:55.925Z,21.19
2022-08-07T01:15:35.846Z,21.13
2022-08-07T01:17:23.970Z,21.07
2022-08-07T01:18:58.428Z,21.08
2022-08-07T01:20:43.430Z,21.09
2022-08-07T01:22:22.909Z,21.12
2022-08-07T01:24:03.683Z,21.16
2022-08-07T01:25:54.893Z,21.19
2022-08-07T01:27:32.419Z,21.16
2022-08-07T01:29:07.711Z,21.17
2022-08-07T01:30:43.196Z,21.18
2022-08-07T01:32:19.757Z,21.18
2022-08-07T01:33:57.781Z,21.13
2022-08-07T01:35:37.009Z,21.11
2022-08-07T01:37:33.808Z,21.05
2022-08-07T01:39:10.223Z,21.06
2022-08-07T01:40:49.183Z,21.03
2022-08-07T01:42:39.338Z,21.01
2022-08-07T01:44:21.086Z,20.98
2022-08-07T01:45:58.718Z,20.93
2022-08-07T01:48:19.182Z,20.87
2022-08-07T01:49:28.251Z,20.87
2022-08-07T01:52:01.341Z,20.87
2022-08-07T01:53:08.816Z,20.87
2022-08-07T01:54:47.993Z,20.82
2022-08-07T01:56:29.080Z,20.70
2022-08-07T01:58:27.359Z,20.75
2022-08-07T02:00:12.892Z,20.80
2022-08-07T02:02:01.655Z,20.81
2022-08-07T02:03:50.867Z,20.83
2022-08-07T02:05:42.933Z,20.85
2022-08-07T02:07:44.997Z,20.84
2022-08-07T02:09:53.299Z,20.76
2022-08-07T02:11:30.922Z,20.74
2022-08-07T02:13:13.575Z,20.74
2022-08-07T02:15:00.651Z,20.74
2022-08-07T02:16:40.976Z,20.75
2022-08-07T02:18:17.767Z,20.73
2022-08-07T02:20:04.819Z,20.76
2022-08-07T02:21:56.256Z,20.79
2022-08-07T02:23:35.959Z,20.77
2022-08-07T02:25:13.951Z,20.71
2022-08-07T02:27:02.847Z,20.63
2022-08-07T02:28:40.177Z,20.58
2022-08-07T02:30:15.161Z,20.58
2022-08-07T02:31:49.707Z,20.61
2022-08-07T02:33:32.815Z,20.58
2022-08-07T02:35:20.238Z,20.61
2022-08-07T02:36:58.037Z,20.58
2022-08-07T02:38:36.933Z,20.53
2022-08-07T02:40:31.093Z,20.46
2022-08-07T02:42:10.166Z,20.38
2022-08-07T02:43:51.535Z,20.33
2022-08-07T02:45:58.769Z,20.30
2022-08-07T02:47:23.987Z,20.28
2022-08-07T02:49:08.687Z,20.27
2022-08-07T02:51:07.213Z,20.20
2022-08-07T02:53:06.402Z,20.26
2022-08-07T02:54:43.383Z,20.30
2022-08-07T02:56:21.756Z,20.33
2022-08-07T02:57:59.939Z,20.39
2022-08-07T02:59:34.507Z,20.38
2022-08-07T03:01:18.809Z,20.25
2022-08-07T03:03:13.437Z,20.21
2022-08-07T03:04:54.153Z,20.19
2022-08-07T03:06:33.330Z,20.15
2022-08-07T03:08:10.711Z,20.14
2022-08-07T03:09:52.640Z,20.16
2022-08-07T03:11:28.549Z,20.18
2022-08-07T03:13:07.777Z,20.21
2022-08-07T03:14:43.372Z,20.22
2022-08-07T03:16:27.775Z,20.28
2022-08-07T03:18:04.039Z,20.30
2022-08-07T03:19:37.435Z,20.29
2022-08-07T03:21:14.428Z,20.23
2022-08-07T03:22:55.156Z,20.26
2022-08-07T03:24:29.011Z,20.27
2022-08-07T03:26:08.146Z,20.27
2022-08-07T03:27:59.712Z,20.20
2022-08-07T03:29:49.549Z,20.11
2022-08-07T03:31:42.688Z,20.11
2022-08-07T03:33:20.356Z,20.10
2022-08-07T03:35:16.997Z,20.09
2022-08-07T03:36:53.692Z,20.16
2022-08-07T03:38:29.919Z,20.17
2022-08-07T03:40:15.542Z,20.17
2022-08-07T03:41:50.910Z,20.15
2022-08-07T03:43:32.292Z,20.20
2022-08-07T03:45:09.454Z,20.19
2022-08-07T03:47:13.123Z,20.21
2022-08-07T03:49:02.243Z,20.24
2022-08-07T03:50:32.191Z,20.29
2022-08-07T03:52:15.947Z,20.34
2022-08-07T03:54:33.470Z,20.41
2022-08-07T03:55:57.680Z,20.48
2022-08-07T03:58:32.613Z,20.60
2022-08-07T03:59:46.729Z,20.72
2022-08-07T04:01:45.202Z,20.78
2022-08-07T04:03:19.323Z,20.82
2022-08-07T04:04:57.166Z,20.80
2022-08-07T04:06:37.722Z,20.82
2022-08-07T04:08:18.403Z,20.83
2022-08-07T04:09:54.269Z,20.87
2022-08-07T04:12:23.874Z,20.98
2022-08-07T04:13:27.749Z,21.01
2022-08-07T04:15:04.966Z,21.02
2022-08-07T04:16:43.041Z,21.02
2022-08-07T04:19:01.321Z,21.00
2022-08-07T04:20:25.772Z,20.98
2022-08-07T04:22:07.833Z,20.99
2022-08-07T04:24:07.094Z,21.03
2022-08-07T04:25:43.185Z,21.06
2022-08-07T04:27:25.257Z,21.07
2022-08-07T04:29:12.191Z,21.10
2022-08-07T04:30:57.032Z,21.17
2022-08-07T04:32:36.081Z,21.24
2022-08-07T04:34:16.602Z,21.30
2022-08-07T04:35:53.943Z,21.38
2022-08-07T04:38:01.160Z,21.47
2022-08-07T04:39:35.645Z,21.55
2022-08-07T04:41:18.224Z,21.64
2022-08-07T04:42:53.752Z,21.69
2022-08-07T04:44:36.532Z,21.76
2022-08-07T04:46:51.313Z,21.83
2022-08-07T04:48:44.755Z,21.86
2022-08-07T04:50:32.157Z,21.85
2022-08-07T04:52:29.389Z,21.86
2022-08-07T04:54:15.676Z,21.82
2022-08-07T04:58:10.347Z,22.10
2022-08-07T04:58:11.699Z,21.94
2022-08-07T05:00:11.431Z,22.26
2022-08-07T05:01:58.234Z,22.43
2022-08-07T05:03:59.677Z,22.56
2022-08-07T05:05:51.877Z,22.62
2022-08-07T05:07:37.091Z,22.79
2022-08-07T05:09:43.014Z,22.97
2022-08-07T05:11:26.315Z,23.12
2022-08-07T05:14:55.448Z,23.42
2022-08-07T05:15:28.012Z,23.64
2022-08-07T05:17:11.970Z,23.81
2022-08-07T05:18:50.045Z,23.95
2022-08-07T05:20:28.236Z,24.06
2022-08-07T05:22:10.649Z,24.24
2022-08-07T05:23:50.455Z,24.43
2022-08-07T05:25:26.114Z,24.78
2022-08-07T05:28:02.040Z,25.18
2022-08-07T05:29:17.097Z,25.53
2022-08-07T05:30:52.296Z,25.88
2022-08-07T05:32:28.198Z,26.37
2022-08-07T05:34:05.704Z,26.83
2022-08-07T05:35:47.864Z,27.31
2022-08-07T05:37:25.332Z,27.70
2022-08-07T05:40:13.942Z,28.14
2022-08-07T05:41:14.234Z,28.58
2022-08-07T05:42:55.786Z,28.87
2022-08-07T05:44:34.927Z,29.07
2022-08-07T05:46:09.996Z,29.32
2022-08-07T05:48:01.218Z,29.69
2022-08-07T05:49:41.677Z,29.97
2022-08-07T05:51:17.582Z,30.25
2022-08-07T05:52:54.640Z,30.48
2022-08-07T05:54:31.289Z,30.81
2022-08-07T05:56:29.912Z,31.15
2022-08-07T05:58:07.272Z,31.46
2022-08-07T05:59:56.182Z,31.64
2022-08-07T06:01:36.192Z,31.31
2022-08-07T06:03:13.612Z,31.09
2022-08-07T06:04:54.632Z,31.16
2022-08-07T06:06:29.849Z,31.67
2022-08-07T06:08:29.631Z,31.65
2022-08-07T06:10:06.191Z,32.04
2022-08-07T06:11:45.446Z,32.26
2022-08-07T06:14:10.583Z,32.41
2022-08-07T06:15:19.901Z,32.11
2022-08-07T06:16:56.200Z,32.21
2022-08-07T06:18:37.829Z,32.21
2022-08-07T06:20:25.745Z,32.09
2022-08-07T06:22:15.370Z,32.35
2022-08-07T06:24:37.792Z,32.57
2022-08-07T06:25:57.235Z,32.78
2022-08-07T06:28:00.007Z,32.80
2022-08-07T06:29:28.793Z,32.56
2022-08-07T06:31:03.753Z,32.79
2022-08-07T06:32:38.838Z,32.86
2022-08-07T06:34:14.052Z,32.89
2022-08-07T06:36:06.852Z,32.71
2022-08-07T06:37:46.558Z,33.03
2022-08-07T06:40:15.684Z,33.29
2022-08-07T06:42:00.621Z,33.61
2022-08-07T06:43:21.442Z,33.70
2022-08-07T06:45:17.981Z,33.71
2022-08-07T06:47:10.141Z,34.10
2022-08-07T06:48:45.572Z,34.32
2022-08-07T06:50:25.996Z,34.64
2022-08-07T06:52:07.478Z,34.90
2022-08-07T06:55:29.248Z,34.85
2022-08-07T06:56:00.451Z,34.94
2022-08-07T06:57:39.825Z,35.07
2022-08-07T07:00:11.917Z,35.21
2022-08-07T07:01:44.036Z,34.91
2022-08-07T07:03:39.444Z,34.89
2022-08-07T07:06:03.730Z,34.99
2022-08-07T07:07:19.182Z,35.02
2022-08-07T07:09:24.271Z,34.98
2022-08-07T07:11:14.017Z,34.99
2022-08-07T07:13:05.004Z,35.08
2022-08-07T07:14:45.509Z,35.37
2022-08-07T07:16:23.504Z,35.53
2022-08-07T07:18:08.752Z,35.60
2022-08-07T07:19:57.030Z,35.73
2022-08-07T07:21:40.472Z,35.15
2022-08-07T07:24:09.390Z,35.56
2022-08-07T07:26:34.428Z,36.09
2022-08-07T07:27:24.867Z,36.41
2022-08-07T07:29:38.464Z,36.75
2022-08-07T07:31:17.243Z,37.02
2022-08-07T07:32:59.150Z,36.74
2022-08-07T07:34:35.933Z,36.71
2022-08-07T07:36:17.318Z,36.80
2022-08-07T07:38:02.600Z,36.69
2022-08-07T07:39:52.462Z,36.93
2022-08-07T07:42:02.120Z,37.17
2022-08-07T07:43:27.645Z,37.24
2022-08-07T07:46:33.374Z,37.01
2022-08-07T07:47:51.945Z,36.84
2022-08-07T07:50:31.306Z,35.90
2022-08-07T07:51:11.833Z,35.08
2022-08-07T07:52:50.647Z,34.40
2022-08-07T07:54:25.627Z,33.94
2022-08-07T07:56:02.403Z,33.83
2022-08-07T07:57:44.013Z,33.42
2022-08-07T07:59:52.449Z,33.28
2022-08-07T08:02:03.150Z,33.91
2022-08-07T08:04:10.991Z,34.27
2022-08-07T08:05:17.901Z,34.41
2022-08-07T08:07:02.601Z,34.01
2022-08-07T08:08:39.291Z,33.47
2022-08-07T08:10:35.558Z,33.52
2022-08-07T08:12:12.123Z,34.09
2022-08-07T08:13:55.149Z,34.55
2022-08-07T08:15:57.476Z,34.95
2022-08-07T08:17:56.372Z,35.19
2022-08-07T08:20:18.119Z,35.11
2022-08-07T08:22:00.584Z,35.40
2022-08-07T08:23:53.594Z,35.04
2022-08-07T08:25:49.223Z,34.65
2022-08-07T08:27:33.482Z,34.86
2022-08-07T08:29:08.544Z,35.01
2022-08-07T08:30:51.050Z,34.83
2022-08-07T08:32:39.498Z,34.90
2022-08-07T08:34:26.627Z,34.94
2022-08-07T08:36:01.715Z,34.54
2022-08-07T08:38:00.993Z,34.38
2022-08-07T08:39:39.597Z,34.10
2022-08-07T08:41:57.556Z,33.98
2022-08-07T08:43:55.858Z,34.00
2022-08-07T08:45:59.399Z,33.88
2022-08-07T08:47:51.945Z,33.68
2022-08-07T08:49:46.555Z,33.78
2022-08-07T08:51:49.527Z,33.46
2022-08-07T08:53:34.978Z,33.15
2022-08-07T08:55:20.832Z,32.97
2022-08-07T08:57:22.345Z,32.81
2022-08-07T08:59:06.312Z,32.60
2022-08-07T09:00:48.693Z,32.52
2022-08-07T09:02:36.727Z,32.50
2022-08-07T09:04:25.664Z,32.54
2022-08-07T09:06:05.490Z,32.70
2022-08-07T09:07:57.843Z,33.12
2022-08-07T09:09:47.657Z,33.40
2022-08-07T09:11:50.751Z,33.32
2022-08-07T09:13:36.795Z,33.13
2022-08-07T09:16:25.687Z,32.81
2022-08-07T09:17:58.956Z,32.55
2022-08-07T09:19:51.920Z,32.41
2022-08-07T09:22:22.887Z,32.51
2022-08-07T09:24:30.992Z,32.48
2022-08-07T09:25:53.472Z,32.30
2022-08-07T09:27:54.529Z,32.25
2022-08-07T09:30:04.092Z,32.25
2022-08-07T09:31:48.518Z,32.22
2022-08-07T09:33:52.652Z,32.25
2022-08-07T09:36:01.068Z,32.35
2022-08-07T09:37:53.755Z,32.52
2022-08-07T09:39:54.598Z,32.44
2022-08-07T09:41:43.245Z,32.34
2022-08-07T09:44:03.092Z,32.19
2022-08-07T09:47:25.812Z,32.11
2022-08-07T09:47:59.930Z,31.88
2022-08-07T09:50:00.450Z,31.89
2022-08-07T09:52:16.614Z,31.99
2022-08-07T09:54:00.607Z,32.00
2022-08-07T09:56:03.862Z,31.89
2022-08-07T09:58:10.315Z,31.81
2022-08-07T10:00:14.805Z,31.82
2022-08-07T10:02:06.193Z,31.83
2022-08-07T10:04:16.020Z,31.91
2022-08-07T10:06:24.350Z,31.94
2022-08-07T10:08:11.940Z,31.97
2022-08-07T10:10:02.616Z,31.95
2022-08-07T10:12:03.336Z,31.91
2022-08-07T10:14:02.156Z,31.77
2022-08-07T10:15:56.134Z,31.79
2022-08-07T10:18:01.001Z,31.73
2022-08-07T10:20:04.857Z,31.74
2022-08-07T10:22:12.366Z,31.71
2022-08-07T10:24:08.438Z,31.73
2022-08-07T10:26:00.574Z,31.75
2022-08-07T10:27:51.458Z,31.74
2022-08-07T10:29:54.099Z,31.80
2022-08-07T10:31:55.034Z,31.95
2022-08-07T10:34:06.629Z,31.96
2022-08-07T10:36:05.629Z,31.95
2022-08-07T10:38:21.723Z,31.99
2022-08-07T10:40:08.961Z,32.11
2022-08-07T10:42:00.308Z,32.46
2022-08-07T10:43:49.672Z,32.98
2022-08-07T10:45:45.033Z,33.11
2022-08-07T10:47:52.592Z,33.04
2022-08-07T10:49:49.425Z,33.06
2022-08-07T10:51:39.583Z,33.06
2022-08-07T10:53:41.989Z,33.09
2022-08-07T10:55:37.064Z,33.29
2022-08-07T10:57:33.952Z,33.12
2022-08-07T10:59:21.229Z,32.87
2022-08-07T11:01:12.388Z,32.61
2022-08-07T11:03:03.263Z,32.52
2022-08-07T11:04:57.605Z,32.46
2022-08-07T11:06:42.237Z,32.44
2022-08-07T11:08:29.252Z,32.42
2022-08-07T11:10:13.313Z,32.28
2022-08-07T11:11:54.804Z,32.28
2022-08-07T11:14:45.761Z,32.25
2022-08-07T11:15:37.091Z,32.25
2022-08-07T11:17:23.174Z,32.27
2022-08-07T11:19:21.733Z,32.22
2022-08-07T11:21:07.567Z,32.16
2022-08-07T11:22:56.938Z,32.20
2022-08-07T11:24:38.978Z,32.20
2022-08-07T11:26:27.891Z,32.29
2022-08-07T11:28:08.165Z,32.49
2022-08-07T11:29:54.120Z,32.71
2022-08-07T11:31:54.891Z,32.98
2022-08-07T11:33:54.331Z,33.18
2022-08-07T11:36:00.451Z,33.39
2022-08-07T11:38:10.192Z,33.54
2022-08-07T11:40:00.113Z,33.66
2022-08-07T11:42:01.714Z,33.64
2022-08-07T11:44:11.485Z,33.61
2022-08-07T11:45:53.685Z,33.61
2022-08-07T11:47:55.913Z,33.69
2022-08-07T11:50:30.530Z,33.65
2022-08-07T11:52:14.681Z,33.37
2022-08-07T11:54:03.140Z,33.39
2022-08-07T11:56:25.235Z,33.31
2022-08-07T11:58:13.262Z,33.15
2022-08-07T12:00:11.472Z,33.02
2022-08-07T12:02:02.115Z,32.89
2022-08-07T12:03:54.693Z,32.90
2022-08-07T12:05:47.223Z,32.77
2022-08-07T12:07:27.260Z,32.85
2022-08-07T12:09:16.126Z,32.95
2022-08-07T12:11:08.342Z,33.00
2022-08-07T12:12:56.255Z,33.12
2022-08-07T12:14:35.959Z,33.29
2022-08-07T12:16:29.877Z,33.34
2022-08-07T12:18:11.211Z,33.42
2022-08-07T12:20:02.602Z,33.44
2022-08-07T12:22:35.802Z,33.40
2022-08-07T12:24:05.632Z,33.39
2022-08-07T12:26:02.822Z,33.42
2022-08-07T12:28:08.516Z,33.41
2022-08-07T12:29:51.691Z,33.46
2022-08-07T12:32:02.236Z,33.42
2022-08-07T12:34:01.298Z,33.47
2022-08-07T12:35:36.286Z,33.38
2022-08-07T12:37:22.914Z,33.45
2022-08-07T12:38:57.985Z,33.50
2022-08-07T12:40:50.835Z,33.32
2022-08-07T12:42:31.846Z,33.28
2022-08-07T12:44:12.897Z,33.14
2022-08-07T12:45:59.076Z,32.79
2022-08-07T12:47:44.276Z,32.64
2022-08-07T12:49:44.682Z,32.48
2022-08-07T12:51:23.415Z,32.41
2022-08-07T12:53:17.628Z,32.42
2022-08-07T12:55:05.643Z,32.38
2022-08-07T12:56:50.963Z,32.33
2022-08-07T12:58:35.131Z,32.35
2022-08-07T13:00:16.432Z,32.46
2022-08-07T13:02:18.631Z,32.55
2022-08-07T13:04:04.639Z,32.72
2022-08-07T13:06:01.914Z,32.89
2022-08-07T13:08:18.851Z,33.02
2022-08-07T13:10:29.378Z,33.00
2022-08-07T13:12:15.133Z,33.09
2022-08-07T13:13:59.512Z,33.17
2022-08-07T13:15:42.958Z,33.34
2022-08-07T13:17:21.869Z,33.40
2022-08-07T13:19:45.906Z,33.41
2022-08-07T13:21:50.317Z,33.44
2022-08-07T13:24:00.978Z,33.54
2022-08-07T13:25:31.879Z,33.78
2022-08-07T13:27:13.343Z,33.71
2022-08-07T13:28:52.446Z,33.70
2022-08-07T13:30:39.895Z,33.66
2022-08-07T13:32:32.581Z,33.65
2022-08-07T13:34:34.442Z,33.46
2022-08-07T13:36:17.397Z,33.10
2022-08-07T13:37:58.971Z,32.92
2022-08-07T13:40:33.418Z,32.89
2022-08-07T13:41:42.365Z,32.84
2022-08-07T13:43:22.111Z,32.69
2022-08-07T13:46:06.683Z,32.61
2022-08-07T13:46:54.769Z,32.34
2022-08-07T13:48:34.333Z,31.88
2022-08-07T13:50:34.004Z,31.50
2022-08-07T13:52:31.485Z,30.84
2022-08-07T13:54:06.395Z,29.99
2022-08-07T13:55:54.285Z,28.98
2022-08-07T13:57:37.592Z,28.25
2022-08-07T13:59:16.400Z,27.76
2022-08-07T14:00:54.272Z,27.48
2022-08-07T14:02:45.772Z,27.36
2022-08-07T14:04:29.965Z,27.18
2022-08-07T14:06:11.551Z,27.09
2022-08-07T14:07:59.343Z,27.12
2022-08-07T14:10:12.128Z,27.11
2022-08-07T14:11:53.767Z,27.23
2022-08-07T14:13:38.983Z,27.29
2022-08-07T14:15:31.877Z,27.31
2022-08-07T14:17:32.223Z,27.44
2022-08-07T14:20:41.229Z,27.45
2022-08-07T14:22:00.640Z,27.58
2022-08-07T14:23:31.351Z,27.78
2022-08-07T14:25:16.991Z,27.97
2022-08-07T14:26:53.735Z,28.14
2022-08-07T14:28:55.769Z,28.30
2022-08-07T14:30:32.999Z,28.39
2022-08-07T14:32:09.480Z,28.38
2022-08-07T14:33:47.652Z,28.36
2022-08-07T14:35:43.002Z,28.34
2022-08-07T14:37:23.720Z,28.39
2022-08-07T14:39:12.472Z,28.32
2022-08-07T14:41:12.399Z,28.32
2022-08-07T14:43:01.008Z,28.30
2022-08-07T14:44:54.136Z,28.30
2022-08-07T14:46:34.073Z,28.15
2022-08-07T14:48:10.668Z,28.02
2022-08-07T14:49:57.338Z,27.91
2022-08-07T14:52:04.865Z,27.82
2022-08-07T14:54:08.704Z,27.79
2022-08-07T14:55:33.503Z,27.85
2022-08-07T14:57:11.021Z,27.82
2022-08-07T14:58:55.313Z,27.91
2022-08-07T15:00:32.758Z,28.01
2022-08-07T15:04:09.011Z,28.05
2022-08-07T15:05:54.768Z,27.95
2022-08-07T15:07:51.188Z,27.86
2022-08-07T15:11:53.172Z,27.82
2022-08-07T15:13:25.496Z,27.79
2022-08-07T15:15:21.165Z,27.51
2022-08-07T15:17:01.157Z,27.25
2022-08-07T15:18:41.600Z,26.99
2022-08-07T15:20:33.865Z,26.71
2022-08-07T15:22:22.176Z,26.50
2022-08-07T15:25:16.169Z,26.36
2022-08-07T15:26:09.199Z,26.26
2022-08-07T15:28:14.106Z,26.24
2022-08-07T15:32:01.904Z,26.46
2022-08-07T15:33:33.982Z,26.53
2022-08-07T15:35:16.880Z,26.56
2022-08-07T15:37:03.371Z,26.59
2022-08-07T15:38:59.335Z,26.67
2022-08-07T15:40:37.038Z,26.75
2022-08-07T15:42:46.181Z,26.86
2022-08-07T15:44:24.086Z,26.96
2022-08-07T15:46:06.893Z,27.05
2022-08-07T15:50:05.931Z,27.18
2022-08-07T15:53:51.639Z,27.17
2022-08-07T15:55:54.016Z,27.16
2022-08-07T15:57:39.794Z,27.13
2022-08-07T15:59:39.523Z,27.08
2022-08-07T16:01:20.267Z,27.13
2022-08-07T16:02:56.969Z,27.19
2022-08-07T16:04:34.393Z,27.23
2022-08-07T16:06:09.660Z,27.21
2022-08-07T16:08:30.353Z,27.23
2022-08-07T16:09:52.170Z,27.22
2022-08-07T16:11:41.490Z,27.25
2022-08-07T16:14:02.833Z,27.30
2022-08-07T16:15:57.444Z,27.33
2022-08-07T16:18:00.890Z,27.28
2022-08-07T16:20:07.321Z,27.17
2022-08-07T16:22:02.387Z,27.15
2022-08-07T16:23:58.548Z,27.17
2022-08-07T16:25:53.997Z,27.13
2022-08-07T16:27:40.417Z,27.16
2022-08-07T16:30:11.001Z,27.08
2022-08-07T16:31:51.005Z,26.94
2022-08-07T16:34:02.520Z,26.96
2022-08-07T16:35:51.858Z,27.03
2022-08-07T16:38:50.380Z,26.98
2022-08-07T16:41:02.104Z,27.01
2022-08-07T16:42:55.813Z,27.04
2022-08-07T16:45:15.121Z,27.05
2022-08-07T16:47:04.433Z,27.00
2022-08-07T16:50:28.507Z,27.06
2022-08-07T16:52:01.232Z,27.09
2022-08-07T16:54:02.102Z,27.10
2022-08-07T16:55:43.789Z,27.12
2022-08-07T16:58:01.648Z,27.11
2022-08-07T16:59:46.845Z,27.11
2022-08-07T17:01:35.343Z,27.14
2022-08-07T17:03:58.056Z,27.14
2022-08-07T17:06:19.849Z,27.21
2022-08-07T17:07:55.248Z,27.16
2022-08-07T17:10:06.284Z,27.12
2022-08-07T17:12:01.442Z,27.02
2022-08-07T17:14:18.277Z,26.96
2022-08-07T17:15:44.459Z,26.95
2022-08-07T17:17:46.020Z,26.91
2022-08-07T17:20:01.780Z,26.85
2022-08-07T17:21:50.799Z,26.80
2022-08-07T17:23:41.587Z,26.73
2022-08-07T17:25:19.991Z,26.68
2022-08-07T17:27:24.127Z,26.59
2022-08-07T17:30:12.734Z,26.51
2022-08-07T17:31:15.593Z,26.56
2022-08-07T17:33:05.532Z,26.64
2022-08-07T17:35:49.640Z,26.57
2022-08-07T17:37:09.111Z,26.45
2022-08-07T17:38:55.341Z,26.54
2022-08-07T17:40:36.376Z,26.56
2022-08-07T17:42:18.067Z,26.51
2022-08-07T17:44:03.029Z,26.43
2022-08-07T17:45:43.370Z,26.30
2022-08-07T17:47:42.092Z,26.23
2022-08-07T17:49:24.038Z,26.13
2022-08-07T17:51:05.600Z,26.06
2022-08-07T17:52:42.053Z,25.94
2022-08-07T17:54:29.593Z,25.81
2022-08-07T17:56:26.120Z,25.80
2022-08-07T17:58:08.347Z,25.73
2022-08-07T17:59:50.641Z,25.68
2022-08-07T18:01:36.249Z,25.70
2022-08-07T18:03:19.390Z,25.65
2022-08-07T18:05:01.429Z,25.59
2022-08-07T18:07:20.397Z,25.59
2022-08-07T18:09:05.706Z,25.56
2022-08-07T18:12:06.953Z,25.56
2022-08-07T18:13:09.856Z,25.59
2022-08-07T18:14:51.055Z,25.59
2022-08-07T18:16:35.024Z,25.61
2022-08-07T18:18:46.130Z,25.61
2022-08-07T18:21:11.946Z,25.57
2022-08-07T18:22:15.218Z,25.56
2022-08-07T18:24:09.200Z,25.54
2022-08-07T18:25:49.448Z,25.53
2022-08-07T18:28:04.575Z,25.46
2022-08-07T18:30:05.802Z,25.44
2022-08-07T18:31:53.630Z,25.42
2022-08-07T18:34:03.117Z,25.36
2022-08-07T18:35:50.320Z,25.32
2022-08-07T18:38:55.036Z,25.26
2022-08-07T18:40:08.524Z,25.21
2022-08-07T18:42:04.890Z,25.21
2022-08-07T18:43:57.657Z,25.24
2022-08-07T18:46:24.552Z,25.22
2022-08-07T18:47:49.483Z,25.19
2022-08-07T18:50:34.974Z,25.20
2022-08-07T18:52:51.787Z,25.18
2022-08-07T18:54:05.142Z,25.16
2022-08-07T18:56:08.380Z,25.18
2022-08-07T18:58:00.724Z,25.19
2022-08-07T18:59:59.410Z,25.16
2022-08-07T19:02:18.305Z,25.12
2022-08-07T19:03:49.489Z,25.09
2022-08-07T19:06:01.591Z,25.04
2022-08-07T19:07:35.451Z,25.04
2022-08-07T19:09:57.454Z,25.05
2022-08-07T19:11:34.791Z,25.03
2022-08-07T19:13:21.880Z,24.95
2022-08-07T19:16:02.404Z,24.93
2022-08-07T19:17:55.634Z,24.90
2022-08-07T19:19:19.873Z,24.84
2022-08-07T19:21:09.047Z,24.84
2022-08-07T19:23:18.266Z,24.85
2022-08-07T19:24:54.597Z,24.86
2022-08-07T19:27:10.303Z,24.85
2022-08-07T19:30:54.166Z,24.82
2022-08-07T19:31:03.117Z,24.75
2022-08-07T19:32:26.484Z,24.71
2022-08-07T19:34:05.609Z,24.65
2022-08-07T19:35:43.526Z,24.59
2022-08-07T19:37:22.253Z,24.57
2022-08-07T19:39:00.504Z,24.59
2022-08-07T19:40:50.086Z,24.51
2022-08-07T19:42:29.500Z,24.45
2022-08-07T19:44:04.826Z,24.42
2022-08-07T19:46:07.192Z,24.42
2022-08-07T19:47:49.191Z,24.40
2022-08-07T19:49:56.502Z,24.41
2022-08-07T19:51:51.056Z,24.37
2022-08-07T19:54:34.645Z,24.45
2022-08-07T19:55:19.688Z,24.44
2022-08-07T19:58:00.841Z,24.31
2022-08-07T19:58:58.221Z,24.34
2022-08-07T20:00:35.772Z,24.30
2022-08-07T20:02:18.955Z,24.27
2022-08-07T20:03:57.134Z,24.25
2022-08-07T20:05:59.959Z,24.26
2022-08-07T20:07:46.364Z,24.19
2022-08-07T20:10:35.307Z,24.16
2022-08-07T20:11:34.089Z,24.10
2022-08-07T20:13:27.304Z,24.13
2022-08-07T20:15:18.946Z,24.12
2022-08-07T20:16:58.139Z,24.08
2022-08-07T20:18:34.548Z,24.05
2022-08-07T20:20:09.755Z,24.00
2022-08-07T20:21:47.181Z,23.92
2022-08-07T20:23:41.599Z,23.81
2022-08-07T20:25:19.720Z,23.64
2022-08-07T20:26:57.307Z,23.51
2022-08-07T20:28:37.036Z,23.45
2022-08-07T20:30:13.592Z,23.32
2022-08-07T20:31:56.570Z,23.29
2022-08-07T20:33:37.539Z,23.23
2022-08-07T20:35:26.044Z,23.19
2022-08-07T20:37:02.144Z,23.14
2022-08-07T20:38:36.990Z,23.11
2022-08-07T20:40:34.538Z,23.07
2022-08-07T20:42:12.866Z,23.10
2022-08-07T20:43:48.485Z,23.09
2022-08-07T20:46:28.667Z,23.07
2022-08-07T20:47:55.562Z,23.04
2022-08-07T20:49:59.987Z,22.97
2022-08-07T20:51:26.006Z,23.04
2022-08-07T20:53:02.256Z,23.07
2022-08-07T20:54:37.955Z,23.08
2022-08-07T20:56:26.016Z,22.99
2022-08-07T20:58:08.874Z,22.95
2022-08-07T21:00:07.201Z,22.93
2022-08-07T21:01:45.687Z,22.95
2022-08-07T21:03:29.335Z,22.94
2022-08-07T21:05:04.488Z,22.92
2022-08-07T21:06:53.397Z,22.94
2022-08-07T21:08:36.573Z,22.95
2022-08-07T21:10:14.933Z,22.96
2022-08-07T21:12:03.678Z,22.98
2022-08-07T21:13:57.665Z,22.97
2022-08-07T21:15:47.595Z,22.96
2022-08-07T21:18:17.399Z,22.98
2022-08-07T21:19:19.936Z,22.94
2022-08-07T21:21:06.508Z,22.90
2022-08-07T21:22:44.993Z,22.96
2022-08-07T21:24:47.919Z,22.98
2022-08-07T21:26:35.396Z,22.97
2022-08-07T21:28:18.876Z,22.92
2022-08-07T21:30:11.202Z,22.78
2022-08-07T21:32:46.660Z,22.76
2022-08-07T21:33:54.796Z,22.68
2022-08-07T21:35:34.639Z,22.60
2022-08-07T21:37:31.438Z,22.56
2022-08-07T21:39:47.399Z,22.49
2022-08-07T21:41:38.184Z,22.42
2022-08-07T21:43:36.701Z,22.40
2022-08-07T21:46:09.549Z,22.42
2022-08-07T21:47:34.574Z,22.39
2022-08-07T21:49:16.538Z,22.29
2022-08-07T21:50:55.279Z,22.25
2022-08-07T21:52:38.111Z,22.22
2022-08-07T21:54:23.419Z,22.23
2022-08-07T21:56:04.172Z,22.22
2022-08-07T21:58:03.248Z,22.11
2022-08-07T22:00:05.363Z,22.00
2022-08-07T22:02:07.056Z,21.95
2022-08-07T22:03:48.946Z,21.90
2022-08-07T22:05:45.984Z,21.90
2022-08-07T22:07:23.094Z,21.90
2022-08-07T22:09:09.010Z,21.78
2022-08-07T22:10:47.334Z,21.73
2022-08-07T22:12:24.674Z,21.59
2022-08-07T22:13:59.813Z,21.56
2022-08-07T22:16:42.549Z,21.51
2022-08-07T22:17:42.761Z,21.48
2022-08-07T22:19:32.329Z,21.44
2022-08-07T22:21:15.766Z,21.35
2022-08-07T22:23:01.754Z,21.31
2022-08-07T22:24:42.231Z,21.25
2022-08-07T22:26:31.173Z,21.22
2022-08-07T22:28:31.124Z,21.19
2022-08-07T22:30:12.363Z,21.25
2022-08-07T22:31:59.970Z,21.25
2022-08-07T22:33:56.711Z,21.30
2022-08-07T22:35:45.039Z,21.29
2022-08-07T22:38:02.953Z,21.26
2022-08-07T22:39:35.319Z,21.26
2022-08-07T22:42:03.343Z,21.27
2022-08-07T22:43:33.919Z,21.27
2022-08-07T22:45:11.081Z,21.26
2022-08-07T22:47:18.395Z,21.25
2022-08-07T22:49:15.907Z,21.23
2022-08-07T22:51:09.387Z,21.22
2022-08-07T22:53:15.367Z,21.21
2022-08-07T22:55:17.052Z,21.21
2022-08-07T22:57:03.478Z,21.14
2022-08-07T22:59:16.280Z,21.09
2022-08-07T23:01:10.128Z,21.10
2022-08-07T23:02:58.573Z,21.13
2022-08-07T23:04:58.302Z,21.12
2022-08-07T23:06:58.651Z,21.12
2022-08-07T23:08:58.678Z,21.10
2022-08-07T23:11:00.918Z,21.08
2022-08-07T23:12:56.548Z,21.02
2022-08-07T23:14:39.313Z,21.07
2022-08-07T23:16:44.589Z,21.08
2022-08-07T23:18:32.329Z,21.05
2022-08-07T23:20:51.420Z,20.94
2022-08-07T23:22:30.068Z,20.94
2022-08-07T23:24:27.830Z,20.95
2022-08-07T23:26:15.559Z,20.94
2022-08-07T23:28:20.538Z,20.95
2022-08-07T23:30:39.407Z,20.95
2022-08-07T23:34:20.952Z,20.97
2022-08-07T23:34:39.986Z,20.92
2022-08-07T23:36:29.209Z,20.99
2022-08-07T23:38:36.580Z,20.96
2022-08-07T23:40:30.201Z,20.92